Time;durP1;ratioP1;P1;durP2;ratioP2;P2;SDS_P1;SDS_P2;PMS_P1;PMS_P2;Temp;Humidity;BMP_temperature;BMP_pressure;BME280_temperature;BME280_humidity;BME280_pressure;Samples;Min_cycle;Max_cycle;Signal;HPM_P1;HPM_P2
2023/05/03 00:02:15;;;;;;;6.40;4.55;;;3.60;99.90;;;;;;5161052;27;20035;-35
2023/05/03 00:04:41;;;;;;;6.65;4.82;;;3.60;99.90;;;;;;5144923;27;20522;-35
2023/05/03 00:07:07;;;;;;;9.27;4.53;;;3.60;99.90;;;;;;5135495;27;20042;-36
2023/05/03 00:09:34;;;;;;;5.57;3.65;;;3.40;99.90;;;;;;5131369;27;20511;-35
2023/05/03 00:12:00;;;;;;;5.07;3.75;;;3.50;99.90;;;;;;5147888;27;20074;-35
2023/05/03 00:14:27;;;;;;;8.93;3.60;;;3.40;99.90;;;;;;5153910;27;20069;-35
2023/05/03 00:16:53;;;;;;;7.05;3.30;;;3.40;99.90;;;;;;5142596;27;20087;-36
2023/05/03 00:19:18;;;;;;;4.15;3.30;;;3.40;99.90;;;;;;5152586;27;20030;-38
2023/05/03 00:21:45;;;;;;;5.32;3.13;;;3.40;99.90;;;;;;5154679;27;20487;-35
2023/05/03 00:24:10;;;;;;;5.47;3.33;;;3.30;99.90;;;;;;5144228;27;20034;-36
2023/05/03 00:26:36;;;;;;;5.40;3.58;;;3.30;99.90;;;;;;5146880;27;20118;-36
2023/05/03 00:29:02;;;;;;;3.92;3.33;;;3.30;99.90;;;;;;5156648;27;20022;-36
2023/05/03 00:31:28;;;;;;;4.07;2.85;;;3.30;99.90;;;;;;5145870;27;20135;-38
2023/05/03 00:33:53;;;;;;;4.22;2.95;;;3.20;99.90;;;;;;5152566;27;20067;-34
2023/05/03 00:36:19;;;;;;;4.53;3.33;;;3.20;99.90;;;;;;5153794;27;20379;-38
2023/05/03 00:38:45;;;;;;;6.50;3.58;;;3.10;99.90;;;;;;5138538;27;20035;-39
2023/05/03 00:41:11;;;;;;;5.65;3.85;;;3.20;99.90;;;;;;5146681;27;20038;-37
2023/05/03 00:43:38;;;;;;;6.32;3.88;;;3.20;99.90;;;;;;5146840;27;20106;-38
2023/05/03 00:46:05;;;;;;;4.63;3.40;;;3.10;99.90;;;;;;5156176;27;20027;-37
2023/05/03 00:48:32;;;;;;;5.55;3.20;;;3.00;99.90;;;;;;5139558;27;20030;-37
2023/05/03 00:50:59;;;;;;;6.32;3.40;;;3.10;99.90;;;;;;5153889;27;20038;-35
2023/05/03 00:53:26;;;;;;;5.88;3.78;;;3.00;99.90;;;;;;5153695;27;20151;-36
2023/05/03 00:55:53;;;;;;;6.32;3.70;;;3.10;99.90;;;;;;5140468;27;20038;-36
2023/05/03 00:58:22;;;;;;;3.55;3.25;;;3.00;99.90;;;;;;5136159;27;20480;-39
2023/05/03 01:00:48;;;;;;;4.53;3.30;;;3.00;99.90;;;;;;5151402;27;20091;-36
2023/05/03 01:03:14;;;;;;;5.20;3.40;;;3.00;99.90;;;;;;5147541;27;20034;-37
2023/05/03 01:06:08;;;;;;;5.85;3.60;;;2.90;99.90;;;;;;5144622;27;20041;-37
2023/05/03 01:08:39;;;;;;;;;;;2.90;99.90;;;;;;5150502;27;20034;-39
2023/05/03 01:11:11;;;;;;;4.47;3.47;;;2.80;99.90;;;;;;5135922;27;19915;-35
2023/05/03 01:13:53;;;;;;;7.82;3.50;;;2.70;99.90;;;;;;5142632;27;20042;-37
2023/05/03 01:16:27;;;;;;;4.85;3.08;;;2.80;99.90;;;;;;5146809;27;20119;-36
2023/05/03 01:18:56;;;;;;;3.88;2.88;;;2.70;99.90;;;;;;5166571;27;20030;-35
2023/05/03 01:21:23;;;;;;;6.88;3.10;;;2.80;99.90;;;;;;5152638;27;20095;-37
2023/05/03 01:24:15;;;;;;;5.30;3.20;;;2.80;99.90;;;;;;5148118;27;20070;-38
2023/05/03 01:26:40;;;;;;;3.13;2.83;;;2.80;99.90;;;;;;5150359;27;20042;-35
2023/05/03 01:29:06;;;;;;;5.85;3.50;;;2.80;99.90;;;;;;5136783;27;20031;-37
2023/05/03 01:31:37;;;;;;;6.55;3.88;;;2.80;99.90;;;;;;5152334;27;20387;-39
2023/05/03 01:34:17;;;;;;;3.83;3.33;;;2.80;99.90;;;;;;5141460;27;20080;-35
2023/05/03 01:36:44;;;;;;;5.15;3.20;;;2.60;99.90;;;;;;5137872;27;20042;-35
2023/05/03 01:39:22;;;;;;;6.50;3.55;;;2.80;99.90;;;;;;5136494;27;20379;-34
2023/05/03 01:41:52;;;;;;;5.68;3.90;;;2.70;99.90;;;;;;5137295;27;20070;-35
2023/05/03 01:44:20;;;;;;;5.03;3.40;;;2.60;99.90;;;;;;5139287;27;20042;-34
2023/05/03 01:46:46;;;;;;;5.28;3.70;;;2.70;99.90;;;;;;5156920;27;20046;-32
2023/05/03 01:49:12;;;;;;;5.68;3.90;;;2.70;99.90;;;;;;5156657;27;20038;-34
2023/05/03 01:51:38;;;;;;;7.85;3.88;;;2.60;99.90;;;;;;5156888;27;20046;-35
2023/05/03 01:54:04;;;;;;;5.97;3.45;;;2.50;99.90;;;;;;5156738;27;20115;-34
2023/05/03 01:56:33;;;;;;;5.13;3.20;;;2.60;99.90;;;;;;5156787;27;20042;-35
2023/05/03 01:58:59;;;;;;;6.35;3.53;;;2.60;99.90;;;;;;5156492;27;20042;-35
2023/05/03 02:01:25;;;;;;;4.93;3.38;;;2.60;99.90;;;;;;5155254;27;20400;-34
2023/05/03 02:03:51;;;;;;;4.93;3.40;;;2.60;99.90;;;;;;5135862;27;20042;-35
2023/05/03 02:06:16;;;;;;;5.13;3.65;;;2.60;99.90;;;;;;5135816;27;20499;-35
2023/05/03 02:08:42;;;;;;;5.47;3.90;;;2.60;99.90;;;;;;5148226;27;20033;-35
2023/05/03 02:11:08;;;;;;;6.10;3.90;;;2.40;99.90;;;;;;5156140;27;20038;-34
2023/05/03 02:13:36;;;;;;;5.50;3.88;;;2.40;99.90;;;;;;5156537;27;20099;-35
2023/05/03 02:16:02;;;;;;;4.05;3.60;;;2.30;99.90;;;;;;5156450;27;20492;-35
2023/05/03 02:18:30;;;;;;;4.15;3.75;;;2.60;99.90;;;;;;5140190;27;20039;-34
2023/05/03 02:20:56;;;;;;;6.10;4.20;;;2.60;99.90;;;;;;5135232;27;20042;-35
2023/05/03 02:23:22;;;;;;;4.20;3.55;;;2.60;99.90;;;;;;5135245;27;20122;-35
2023/05/03 02:25:48;;;;;;;5.88;3.40;;;2.70;99.90;;;;;;5156013;27;20037;-34
2023/05/03 02:28:14;;;;;;;4.50;3.88;;;2.50;99.90;;;;;;5155856;27;20030;-35
2023/05/03 02:30:41;;;;;;;5.88;3.90;;;2.50;99.90;;;;;;5152516;27;20066;-36
2023/05/03 02:33:06;;;;;;;4.32;3.78;;;2.40;99.90;;;;;;5140182;27;20037;-35
2023/05/03 02:35:32;;;;;;;4.30;3.80;;;2.40;99.90;;;;;;5155876;27;20562;-35
2023/05/03 02:37:58;;;;;;;4.65;4.25;;;2.60;99.90;;;;;;5155631;27;20034;-35
2023/05/03 02:40:24;;;;;;;4.47;3.55;;;2.50;99.90;;;;;;5142194;27;20110;-34
2023/05/03 02:42:51;;;;;;;5.50;4.20;;;2.40;99.90;;;;;;5135089;27;20070;-37
2023/05/03 02:45:17;;;;;;;5.50;4.20;;;2.40;99.90;;;;;;5135363;27;20508;-35
2023/05/03 02:47:43;;;;;;;4.60;3.85;;;2.40;99.90;;;;;;5135018;27;20035;-34
2023/05/03 02:50:09;;;;;;;5.35;4.30;;;2.20;99.90;;;;;;5153150;27;20043;-34
2023/05/03 02:52:34;;;;;;;5.95;4.15;;;2.30;99.90;;;;;;5141554;27;20082;-37
2023/05/03 02:55:00;;;;;;;4.38;3.63;;;2.40;99.90;;;;;;5142870;27;20043;-36
2023/05/03 02:57:26;;;;;;;4.40;4.00;;;2.20;99.90;;;;;;5134806;27;20068;-36
2023/05/03 02:59:52;;;;;;;5.22;4.05;;;2.30;99.90;;;;;;5135310;27;20046;-36
2023/05/03 03:02:17;;;;;;;5.35;3.90;;;2.30;99.90;;;;;;5134832;27;20039;-33
2023/05/03 03:04:43;;;;;;;5.75;4.15;;;2.30;99.90;;;;;;5135232;27;20039;-33
2023/05/03 03:07:09;;;;;;;6.28;3.90;;;2.30;99.90;;;;;;5141958;27;20035;-35
2023/05/03 03:09:34;;;;;;;6.03;3.90;;;2.20;99.90;;;;;;5155874;27;20038;-36
2023/05/03 03:12:04;;;;;;;4.55;3.40;;;2.20;99.90;;;;;;5149161;27;20117;-35
2023/05/03 03:14:30;;;;;;;6.68;4.32;;;2.30;99.90;;;;;;5144570;27;20031;-34
2023/05/03 03:16:56;;;;;;;3.83;3.42;;;2.00;99.90;;;;;;5153058;27;20046;-34
2023/05/03 03:19:22;;;;;;;5.25;4.22;;;2.00;99.90;;;;;;5135708;27;20039;-35
2023/05/03 03:21:48;;;;;;;3.90;3.42;;;2.10;99.90;;;;;;5151199;27;20049;-33
2023/05/03 03:24:14;;;;;;;6.28;4.05;;;2.10;99.90;;;;;;5175104;27;20392;-35
2023/05/03 03:26:40;;;;;;;4.80;3.60;;;2.00;99.90;;;;;;5156485;27;20038;-34
2023/05/03 03:29:08;;;;;;;5.85;4.32;;;1.90;99.90;;;;;;5152742;27;20033;-37
2023/05/03 03:31:35;;;;;;;6.03;4.00;;;2.00;99.90;;;;;;5135983;27;20479;-34
2023/05/03 03:34:00;;;;;;;8.10;4.10;;;2.10;99.90;;;;;;5141429;27;20033;-34
2023/05/03 03:36:27;;;;;;;4.60;4.18;;;1.90;99.90;;;;;;5143995;27;20031;-36
2023/05/03 03:38:53;;;;;;;5.22;4.25;;;2.00;99.90;;;;;;5154092;27;20039;-34
2023/05/03 03:41:19;;;;;;;4.65;4.20;;;1.80;99.90;;;;;;5141525;27;20491;-32
2023/05/03 03:43:45;;;;;;;5.80;4.30;;;1.80;99.90;;;;;;5143454;27;20031;-36
2023/05/03 03:46:11;;;;;;;6.47;4.20;;;1.90;99.90;;;;;;5138429;27;20042;-34
2023/05/03 03:48:37;;;;;;;5.22;4.28;;;1.70;99.90;;;;;;5129181;27;20440;-33
2023/05/03 03:51:02;;;;;;;5.00;4.28;;;1.80;99.90;;;;;;5159961;27;20067;-38
2023/05/03 03:53:28;;;;;;;5.60;3.83;;;1.80;99.90;;;;;;5142521;27;20046;-35
2023/05/03 03:55:55;;;;;;;5.00;4.25;;;1.70;99.90;;;;;;5160104;27;20542;-34
2023/05/03 03:58:21;;;;;;;4.95;4.13;;;1.90;99.90;;;;;;5149752;27;20039;-35
2023/05/03 04:00:47;;;;;;;6.53;4.35;;;1.70;99.90;;;;;;5139171;27;20385;-34
2023/05/03 04:03:14;;;;;;;6.25;4.68;;;1.70;99.90;;;;;;5138786;27;20049;-38
2023/05/03 04:05:40;;;;;;;6.22;4.10;;;1.70;99.90;;;;;;5139031;27;20391;-36
2023/05/03 04:08:05;;;;;;;5.55;4.30;;;1.70;99.90;;;;;;5139310;27;20117;-34
2023/05/03 04:10:31;;;;;;;6.38;4.70;;;1.60;99.90;;;;;;5151187;27;20114;-34
2023/05/03 04:12:57;;;;;;;7.03;4.13;;;1.60;99.90;;;;;;5157817;27;20104;-34
2023/05/03 04:15:22;;;;;;;5.75;4.10;;;1.70;99.90;;;;;;5159815;27;20030;-34
2023/05/03 04:17:48;;;;;;;5.72;4.38;;;1.70;99.90;;;;;;5148624;27;20510;-34
2023/05/03 04:20:16;;;;;;;5.05;3.70;;;1.60;99.90;;;;;;5138538;27;20042;-33
2023/05/03 04:22:42;;;;;;;5.63;4.57;;;1.70;99.90;;;;;;5138333;27;20043;-33
2023/05/03 04:25:12;;;;;;;7.07;4.03;;;1.70;99.90;;;;;;5138778;27;20060;-34
2023/05/03 04:27:37;;;;;;;7.32;4.50;;;1.70;99.90;;;;;;5138659;27;20039;-34
2023/05/03 04:30:03;;;;;;;6.15;4.60;;;1.70;99.90;;;;;;5157161;27;20041;-34
2023/05/03 04:32:36;;;;;;;6.43;4.13;;;1.70;99.90;;;;;;5143730;27;20041;-35
2023/05/03 04:35:09;;;;;;;6.63;4.53;;;1.70;99.90;;;;;;5146200;27;20392;-34
2023/05/03 04:37:39;;;;;;;6.10;4.70;;;1.70;99.90;;;;;;5138448;27;20496;-34
2023/05/03 04:40:08;;;;;;;5.70;4.38;;;1.70;99.90;;;;;;5150569;27;20475;-33
2023/05/03 04:42:35;;;;;;;6.57;5.63;;;1.70;99.90;;;;;;5154149;27;20556;-34
2023/05/03 04:45:08;;;;;;;6.90;4.70;;;1.70;99.90;;;;;;5138435;27;20057;-33
2023/05/03 04:47:34;;;;;;;6.18;4.57;;;1.70;99.90;;;;;;5156403;27;20379;-35
2023/05/03 04:50:00;;;;;;;7.45;4.82;;;1.80;99.90;;;;;;5148790;27;20031;-35
2023/05/03 04:52:29;;;;;;;6.13;4.82;;;1.80;99.90;;;;;;5137739;27;20073;-34
2023/05/03 04:54:55;;;;;;;6.55;4.72;;;1.80;99.90;;;;;;5144874;27;20083;-33
2023/05/03 04:57:21;;;;;;;4.88;4.38;;;1.90;99.90;;;;;;5158550;27;20042;-35
2023/05/03 04:59:47;;;;;;;7.55;5.00;;;1.90;99.90;;;;;;5143950;27;20526;-32
2023/05/03 05:02:13;;;;;;;7.07;4.57;;;2.00;99.90;;;;;;5158363;27;20042;-34
2023/05/03 05:04:38;;;;;;;8.48;5.30;;;2.00;99.90;;;;;;5141522;27;20110;-34
2023/05/03 05:07:07;;;;;;;6.95;5.22;;;2.10;99.90;;;;;;5137336;27;20444;-36
2023/05/03 05:09:33;;;;;;;10.63;5.30;;;2.20;99.90;;;;;;5157222;27;20089;-32
2023/05/03 05:11:59;;;;;;;7.90;4.82;;;2.20;99.90;;;;;;5139689;27;20074;-34
2023/05/03 05:14:29;;;;;;;11.05;4.80;;;2.30;99.90;;;;;;5137894;27;20049;-32
2023/05/03 05:16:56;;;;;;;11.52;5.13;;;2.40;99.90;;;;;;5137933;27;20031;-33
2023/05/03 05:19:22;;;;;;;9.38;4.88;;;2.40;99.90;;;;;;5149111;27;20087;-32
2023/05/03 05:21:48;;;;;;;11.48;5.70;;;2.50;99.90;;;;;;5154085;27;20491;-33
2023/05/03 05:24:14;;;;;;;15.45;6.35;;;2.60;99.90;;;;;;5137480;27;20556;-33
2023/05/03 05:26:42;;;;;;;11.05;7.18;;;2.70;99.90;;;;;;5137278;27;20041;-33
2023/05/03 05:29:07;;;;;;;11.10;7.38;;;2.70;99.90;;;;;;5137159;27;20031;-33
2023/05/03 05:31:34;;;;;;;11.88;6.63;;;2.80;99.90;;;;;;5155892;27;20030;-33
2023/05/03 05:34:00;;;;;;;18.38;8.52;;;2.90;99.90;;;;;;5157480;27;20122;-33
2023/05/03 05:36:26;;;;;;;11.23;7.15;;;3.00;99.90;;;;;;5157873;27;20034;-33
2023/05/03 05:38:52;;;;;;;10.75;7.38;;;3.10;99.90;;;;;;5143000;27;20040;-33
2023/05/03 05:41:18;;;;;;;10.93;6.85;;;3.30;99.90;;;;;;5157986;27;20491;-34
2023/05/03 05:43:44;;;;;;;11.60;7.75;;;3.50;99.90;;;;;;5155830;27;20042;-33
2023/05/03 05:46:10;;;;;;;9.80;7.15;;;3.60;99.90;;;;;;5140652;27;20030;-35
2023/05/03 05:48:36;;;;;;;10.30;6.82;;;3.80;99.90;;;;;;5152329;27;20090;-33
2023/05/03 05:51:02;;;;;;;8.45;6.53;;;3.90;99.90;;;;;;5136739;27;20027;-33
2023/05/03 05:53:28;;;;;;;7.68;6.28;;;4.10;99.90;;;;;;5155039;27;20038;-33
2023/05/03 05:55:54;;;;;;;8.80;6.32;;;4.20;99.90;;;;;;5154774;27;20509;-33
2023/05/03 05:58:19;;;;;;;10.75;6.47;;;4.40;99.90;;;;;;5157205;27;20042;-33
2023/05/03 06:00:47;;;;;;;10.68;6.38;;;4.50;99.90;;;;;;5150268;27;20392;-33
2023/05/03 06:03:14;;;;;;;10.43;6.03;;;4.70;99.90;;;;;;5137457;27;20108;-33
2023/05/03 06:05:40;;;;;;;6.78;5.72;;;4.80;99.90;;;;;;5136430;27;20087;-33
2023/05/03 06:08:07;;;;;;;8.38;5.65;;;5.00;99.90;;;;;;5135983;27;20031;-33
2023/05/03 06:10:33;;;;;;;7.63;5.47;;;5.10;99.90;;;;;;5137135;27;20399;-33
2023/05/03 06:12:59;;;;;;;8.40;5.63;;;5.30;99.90;;;;;;5136820;27;20140;-33
2023/05/03 06:15:25;;;;;;;7.53;5.65;;;5.50;99.90;;;;;;5136361;27;20045;-33
2023/05/03 06:17:50;;;;;;;6.70;5.50;;;5.60;99.90;;;;;;5135870;27;20129;-33
2023/05/03 06:20:17;;;;;;;9.68;5.53;;;5.90;99.90;;;;;;5136290;27;20031;-33
2023/05/03 06:22:43;;;;;;;7.97;5.47;;;6.00;99.90;;;;;;5151145;27;20070;-33
2023/05/03 06:25:13;;;;;;;8.43;5.38;;;6.20;99.90;;;;;;5144399;27;20472;-33
2023/05/03 06:27:38;;;;;;;7.50;5.20;;;6.40;99.90;;;;;;5156601;27;20034;-33
2023/05/03 06:30:05;;;;;;;7.22;5.30;;;6.50;99.90;;;;;;5156786;27;20041;-33
2023/05/03 06:32:31;;;;;;;6.47;5.00;;;6.70;99.90;;;;;;5156613;27;20038;-33
2023/05/03 06:34:58;;;;;;;6.63;5.30;;;6.80;99.90;;;;;;5158948;27;20042;-33
2023/05/03 06:37:25;;;;;;;6.45;4.80;;;7.00;99.90;;;;;;5135572;27;20034;-33
2023/05/03 06:39:50;;;;;;;5.72;4.30;;;7.20;99.90;;;;;;5136077;27;20046;-33
2023/05/03 06:42:16;;;;;;;6.35;3.60;;;7.30;99.90;;;;;;5135603;27;20110;-33
2023/05/03 06:44:42;;;;;;;5.63;3.97;;;7.50;99.90;;;;;;5143575;27;20034;-33
2023/05/03 06:47:08;;;;;;;6.75;3.92;;;7.60;99.90;;;;;;5156609;27;20030;-33
2023/05/03 06:49:34;;;;;;;7.72;3.75;;;7.80;99.90;;;;;;5147460;27;20034;-34
2023/05/03 06:51:59;;;;;;;4.07;3.58;;;7.90;99.90;;;;;;5147508;27;20042;-33
2023/05/03 06:54:25;;;;;;;4.30;3.90;;;8.00;99.90;;;;;;5138097;27;20044;-33
2023/05/03 06:56:51;;;;;;;4.25;3.85;;;8.10;99.90;;;;;;5135832;27;20078;-33
2023/05/03 06:59:18;;;;;;;6.78;3.90;;;8.20;99.90;;;;;;5146380;27;20046;-33
2023/05/03 07:01:44;;;;;;;5.07;3.65;;;8.40;99.90;;;;;;5135527;27;20515;-33
2023/05/03 07:04:10;;;;;;;7.72;3.90;;;8.60;99.90;;;;;;5148878;27;20042;-34
2023/05/03 07:06:36;;;;;;;5.10;3.35;;;8.70;99.90;;;;;;5156310;27;20040;-33
2023/05/03 07:09:03;;;;;;;6.45;3.70;;;8.80;99.90;;;;;;5174763;27;20499;-33
2023/05/03 07:11:29;;;;;;;4.15;3.28;;;8.90;99.90;;;;;;5156558;27;20393;-33
2023/05/03 07:13:55;;;;;;;5.82;3.20;;;9.00;99.90;;;;;;5175012;27;20030;-33
2023/05/03 07:16:21;;;;;;;4.28;3.38;;;9.20;99.90;;;;;;5156217;27;20034;-33
2023/05/03 07:18:47;;;;;;;5.47;3.38;;;9.30;99.90;;;;;;5157008;27;20038;-33
2023/05/03 07:21:14;;;;;;;5.07;3.50;;;9.50;99.90;;;;;;5147372;27;20027;-33
2023/05/03 07:23:40;;;;;;;6.05;3.53;;;9.60;99.90;;;;;;5139442;27;20074;-33
2023/05/03 07:26:07;;;;;;;6.05;3.28;;;9.60;99.90;;;;;;5150622;27;20139;-33
2023/05/03 07:28:33;;;;;;;3.58;3.28;;;9.80;99.90;;;;;;5160652;27;20087;-35
2023/05/03 07:30:59;;;;;;;4.32;3.22;;;9.90;99.90;;;;;;5155686;27;20472;-33
2023/05/03 07:33:25;;;;;;;3.33;3.00;;;10.10;99.90;;;;;;5153319;27;20046;-33
2023/05/03 07:35:51;;;;;;;5.13;3.00;;;10.10;99.90;;;;;;5173982;27;20042;-34
2023/05/03 07:38:17;;;;;;;3.65;2.90;;;10.40;99.90;;;;;;5122508;27;20078;-33
2023/05/03 07:40:43;;;;;;;2.88;2.53;;;10.60;99.90;;;;;;5122511;27;20392;-33
2023/05/03 07:43:09;;;;;;;4.25;2.97;;;10.90;99.90;;;;;;5139260;27;20293;-33
2023/05/03 07:45:36;;;;;;;6.40;3.33;;;11.10;99.90;;;;;;5157741;27;20030;-33
2023/05/03 07:48:03;;;;;;;2.90;2.70;;;11.40;99.90;;;;;;5141534;27;20047;-33
2023/05/03 07:50:29;;;;;;;3.25;2.50;;;11.70;99.90;;;;;;5139071;27;20039;-33
2023/05/03 07:52:56;;;;;;;3.83;2.70;;;11.80;99.90;;;;;;5139300;27;20511;-33
2023/05/03 07:55:22;;;;;;;3.08;2.50;;;11.70;99.90;;;;;;5138838;27;20041;-34
2023/05/03 07:57:47;;;;;;;3.60;2.55;;;11.70;99.90;;;;;;5138681;27;20047;-32
2023/05/03 08:00:16;;;;;;;2.95;2.70;;;11.60;99.90;;;;;;5156293;27;20539;-33
2023/05/03 08:02:42;;;;;;;3.35;2.53;;;11.40;99.90;;;;;;5138808;27;20492;-34
2023/05/03 08:05:09;;;;;;;4.32;2.70;;;11.40;99.90;;;;;;5156204;27;20083;-34
2023/05/03 08:07:35;;;;;;;4.43;2.35;;;11.40;99.90;;;;;;5138384;27;20027;-33
2023/05/03 08:10:01;;;;;;;4.22;2.33;;;11.30;99.90;;;;;;5157137;27;20033;-33
2023/05/03 08:12:27;;;;;;;2.55;2.13;;;11.30;99.90;;;;;;5138686;27;20393;-33
2023/05/03 08:14:54;;;;;;;4.03;2.35;;;11.20;99.90;;;;;;5158795;27;20039;-33
2023/05/03 08:17:22;;;;;;;3.58;2.58;;;11.30;99.90;;;;;;5158123;27;20053;-33
2023/05/03 08:19:48;;;;;;;3.20;2.85;;;11.40;99.90;;;;;;5144529;27;20042;-34
2023/05/03 08:22:15;;;;;;;3.13;2.40;;;11.80;99.90;;;;;;5158955;27;20502;-34
2023/05/03 08:24:41;;;;;;;3.58;2.30;;;12.20;99.90;;;;;;5145902;27;20498;-33
2023/05/03 08:27:08;;;;;;;4.93;2.25;;;12.50;99.90;;;;;;5138200;27;20031;-35
2023/05/03 08:29:37;;;;;;;2.75;2.42;;;12.50;99.90;;;;;;5138100;27;20031;-32
2023/05/03 08:32:04;;;;;;;4.95;2.42;;;12.10;99.90;;;;;;5137854;27;20463;-32
2023/05/03 08:34:31;;;;;;;5.07;2.50;;;12.00;99.90;;;;;;5138347;27;20074;-32
2023/05/03 08:36:57;;;;;;;3.35;2.50;;;11.90;99.90;;;;;;5140858;27;20041;-33
2023/05/03 08:39:25;;;;;;;4.80;2.60;;;11.90;99.90;;;;;;5158777;27;20073;-33
2023/05/03 08:41:50;;;;;;;4.20;2.85;;;11.90;99.90;;;;;;5158342;27;20165;-32
2023/05/03 08:44:24;;;;;;;3.22;2.50;;;11.90;99.90;;;;;;5158551;27;20038;-33
2023/05/03 08:46:50;;;;;;;;;;;11.90;99.90;;;;;;5159233;27;20452;-33
2023/05/03 08:49:17;;;;;;;4.32;2.60;;;12.00;99.90;;;;;;5155351;27;19921;-32
2023/05/03 08:51:48;;;;;;;2.50;1.95;;;12.10;99.90;;;;;;5158483;27;20042;-32
2023/05/03 08:54:16;;;;;;;5.18;2.40;;;12.10;99.90;;;;;;5157940;27;20043;-32
2023/05/03 08:56:43;;;;;;;7.75;2.88;;;12.10;99.90;;;;;;5158332;27;20038;-32
2023/05/03 08:59:12;;;;;;;5.22;2.50;;;12.00;99.90;;;;;;5145682;27;20042;-33
2023/05/03 09:01:40;;;;;;;2.60;2.13;;;12.00;99.90;;;;;;5151977;27;20031;-32
2023/05/03 09:04:07;;;;;;;3.42;2.25;;;12.00;99.90;;;;;;5150204;27;20497;-33
2023/05/03 09:06:33;;;;;;;2.45;2.13;;;12.30;99.90;;;;;;5176844;27;20034;-33
2023/05/03 09:09:00;;;;;;;4.05;2.40;;;12.80;99.90;;;;;;5137651;27;20479;-32
2023/05/03 09:11:30;;;;;;;3.33;2.53;;;13.30;99.90;;;;;;5161212;27;20383;-33
2023/05/03 09:14:14;;;;;;;6.57;2.85;;;13.80;99.90;;;;;;5148925;27;20034;-34
2023/05/03 09:16:43;;;;;;;2.45;2.25;;;14.40;99.90;;;;;;5139625;27;20472;-34
2023/05/03 09:19:10;;;;;;;3.88;2.30;;;14.90;99.90;;;;;;5136860;27;20031;-34
2023/05/03 09:21:40;;;;;;;2.38;1.73;;;14.90;99.90;;;;;;5143423;27;20027;-34
2023/05/03 09:24:12;;;;;;;3.15;2.20;;;15.10;99.90;;;;;;5145144;27;20495;-34
2023/05/03 09:26:39;;;;;;;3.13;2.13;;;15.20;81.50;;;;;;5151221;27;20034;-34
2023/05/03 09:29:05;;;;;;;4.22;2.60;;;15.40;99.90;;;;;;5157061;27;20026;-34
2023/05/03 09:31:35;;;;;;;3.88;2.13;;;15.40;94.10;;;;;;5155809;27;20103;-34
2023/05/03 09:34:19;;;;;;;3.88;2.00;;;15.50;84.00;;;;;;5136697;27;20046;-34
2023/05/03 09:36:46;;;;;;;4.05;2.17;;;15.30;84.60;;;;;;5137064;27;20480;-34
2023/05/03 09:39:16;;;;;;;3.30;2.22;;;15.50;81.00;;;;;;5142214;27;20034;-34
2023/05/03 09:41:42;;;;;;;2.83;2.20;;;15.70;70.40;;;;;;5175613;27;20061;-34
2023/05/03 09:44:08;;;;;;;4.40;2.22;;;16.10;80.90;;;;;;5142868;27;20480;-34
2023/05/03 09:46:34;;;;;;;3.13;2.88;;;16.20;73.50;;;;;;5144924;27;20030;-34
2023/05/03 09:49:00;;;;;;;2.60;2.33;;;16.60;69.40;;;;;;5137040;27;20031;-34
2023/05/03 09:51:27;;;;;;;2.50;1.83;;;17.00;66.10;;;;;;5157445;27;20322;-34
2023/05/03 09:53:55;;;;;;;5.30;2.00;;;17.50;65.60;;;;;;5157364;27;20599;-34
2023/05/03 09:56:25;;;;;;;3.58;1.90;;;17.90;62.50;;;;;;5137696;27;20098;-35
2023/05/03 09:58:52;;;;;;;4.07;2.20;;;18.10;60.10;;;;;;5136662;27;20042;-35
2023/05/03 10:01:21;;;;;;;5.40;3.05;;;18.20;58.80;;;;;;5154339;27;20122;-34
2023/05/03 10:03:49;;;;;;;5.90;2.10;;;18.10;56.50;;;;;;5147344;27;20365;-34
2023/05/03 10:06:29;;;;;;;3.65;1.77;;;17.90;56.50;;;;;;5136438;27;20565;-35
2023/05/03 10:09:05;;;;;;;2.40;2.20;;;18.10;55.10;;;;;;5136582;27;20392;-34
2023/05/03 10:11:35;;;;;;;2.72;2.13;;;18.30;55.10;;;;;;5136533;27;20062;-34
2023/05/03 10:14:03;;;;;;;3.67;1.90;;;18.70;54.70;;;;;;5145540;27;20038;-34
2023/05/03 10:16:32;;;;;;;3.50;1.67;;;18.70;54.50;;;;;;5141346;27;20045;-35
2023/05/03 10:19:14;;;;;;;2.88;2.20;;;18.70;53.80;;;;;;5144524;27;20080;-35
2023/05/03 10:22:04;;;;;;;3.78;2.10;;;18.50;53.10;;;;;;5151538;27;20046;-37
2023/05/03 10:24:31;;;;;;;2.58;1.80;;;19.00;53.80;;;;;;5143726;27;20506;-39
2023/05/03 10:26:57;;;;;;;2.95;2.03;;;19.40;52.70;;;;;;5143815;27;20468;-37
2023/05/03 10:29:50;;;;;;;2.58;1.92;;;19.20;51.50;;;;;;5150462;27;20056;-40
2023/05/03 10:32:29;;;;;;;4.47;1.85;;;19.20;49.90;;;;;;5138053;27;20039;-36
2023/05/03 10:35:11;;;;;;;2.55;1.75;;;19.40;51.80;;;;;;5155068;27;20041;-40
2023/05/03 10:37:40;;;;;;;3.25;1.85;;;19.50;52.20;;;;;;5149967;27;20109;-37
2023/05/03 10:40:10;;;;;;;4.47;2.03;;;19.40;52.50;;;;;;5149109;27;20547;-39
2023/05/03 10:42:37;;;;;;;3.20;2.35;;;19.40;52.30;;;;;;5144013;27;20042;-38
2023/05/03 10:45:03;;;;;;;2.22;1.60;;;19.10;50.10;;;;;;5151077;27;20034;-40
2023/05/03 10:47:29;;;;;;;4.70;2.13;;;18.90;50.60;;;;;;5140053;27;20452;-38
2023/05/03 10:50:13;;;;;;;3.95;2.00;;;18.90;50.60;;;;;;5149148;27;20086;-39
2023/05/03 10:52:39;;;;;;;4.15;1.83;;;19.30;50.10;;;;;;5149107;27;20700;-38
2023/05/03 10:55:14;;;;;;;2.83;1.83;;;19.40;49.80;;;;;;5144110;27;20039;-37
2023/05/03 10:57:42;;;;;;;2.55;1.70;;;19.70;49.20;;;;;;5147397;27;20041;-38
2023/05/03 11:00:43;;;;;;;5.03;2.13;;;20.00;49.60;;;;;;5142771;27;20026;-38
2023/05/03 11:03:12;;;;;;;4.75;2.17;;;20.00;47.30;;;;;;5137312;27;20046;-37
2023/05/03 11:05:38;;;;;;;3.15;1.80;;;19.80;48.90;;;;;;5147277;27;20038;-38
2023/05/03 11:08:07;;;;;;;2.88;1.77;;;20.30;49.30;;;;;;5145915;27;20067;-38
2023/05/03 11:10:33;;;;;;;2.42;1.70;;;20.10;48.20;;;;;;5143201;27;20034;-37
2023/05/03 11:12:59;;;;;;;3.88;2.20;;;20.30;48.30;;;;;;5139900;27;20034;-38
2023/05/03 11:15:25;;;;;;;2.97;1.70;;;20.40;48.20;;;;;;5126093;27;20768;-37
2023/05/03 11:17:50;;;;;;;3.33;1.80;;;20.40;47.00;;;;;;5143439;27;20034;-37
2023/05/03 11:20:17;;;;;;;3.10;1.85;;;20.30;46.80;;;;;;5166987;27;20426;-37
2023/05/03 11:22:43;;;;;;;4.85;1.92;;;20.50;47.70;;;;;;5147238;27;20113;-38
2023/05/03 11:25:09;;;;;;;2.85;1.90;;;20.10;47.10;;;;;;5145269;27;20118;-36
2023/05/03 11:27:35;;;;;;;3.60;1.73;;;20.20;47.00;;;;;;5162608;27;20046;-37
2023/05/03 11:30:01;;;;;;;3.75;2.28;;;20.20;47.00;;;;;;5141490;27;20376;-40
2023/05/03 11:32:27;;;;;;;3.47;2.28;;;20.40;47.50;;;;;;5150177;27;20044;-40
2023/05/03 11:34:53;;;;;;;4.50;2.30;;;20.30;47.20;;;;;;5147164;27;20042;-37
2023/05/03 11:37:19;;;;;;;2.75;2.03;;;20.00;46.70;;;;;;5142237;27;20034;-37
2023/05/03 11:39:46;;;;;;;2.65;1.63;;;20.60;47.10;;;;;;5137930;27;20484;-37
2023/05/03 11:42:12;;;;;;;4.50;1.92;;;21.10;46.80;;;;;;5140108;27;20040;-37
2023/05/03 11:44:38;;;;;;;2.42;2.22;;;21.10;45.90;;;;;;5140660;27;20039;-38
2023/05/03 11:47:05;;;;;;;2.22;2.03;;;20.70;44.90;;;;;;5150160;27;20033;-40
2023/05/03 11:49:30;;;;;;;3.03;2.13;;;20.80;45.70;;;;;;5150888;27;20045;-39
2023/05/03 11:51:56;;;;;;;3.53;1.80;;;20.60;46.20;;;;;;5147992;27;20034;-37
2023/05/03 11:54:23;;;;;;;3.20;1.98;;;21.10;45.70;;;;;;5142089;27;20391;-41
2023/05/03 11:56:50;;;;;;;2.53;2.08;;;21.20;45.00;;;;;;5145076;27;20102;-38
2023/05/03 11:59:17;;;;;;;2.05;1.75;;;21.40;43.40;;;;;;5145215;27;20213;-37
2023/05/03 12:01:43;;;;;;;3.47;2.10;;;21.50;43.70;;;;;;5138938;27;20046;-38
2023/05/03 12:04:11;;;;;;;1.88;1.77;;;21.90;43.90;;;;;;5164184;27;20479;-38
2023/05/03 12:06:37;;;;;;;2.33;2.13;;;22.60;43.90;;;;;;5136999;27;20069;-42
2023/05/03 12:09:12;;;;;;;2.28;2.03;;;22.60;43.30;;;;;;5151171;27;20058;-38
2023/05/03 12:11:41;;;;;;;2.45;2.00;;;22.80;43.00;;;;;;5164598;27;20486;-39
2023/05/03 12:14:07;;;;;;;3.97;2.50;;;23.00;43.10;;;;;;5147233;27;20125;-39
2023/05/03 12:16:51;;;;;;;4.50;1.90;;;22.80;43.00;;;;;;5142866;27;20114;-38
2023/05/03 12:19:30;;;;;;;2.22;2.05;;;23.00;43.00;;;;;;5145753;27;20031;-40
2023/05/03 12:21:56;;;;;;;2.88;2.25;;;23.20;41.80;;;;;;5164919;27;20167;-37
2023/05/03 12:24:22;;;;;;;3.05;2.28;;;23.20;42.20;;;;;;5144279;27;20039;-37
2023/05/03 12:26:49;;;;;;;4.32;2.25;;;23.00;42.00;;;;;;5140926;27;20045;-38
2023/05/03 12:29:18;;;;;;;2.63;2.20;;;23.40;41.40;;;;;;5158114;27;20022;-38
2023/05/03 12:31:45;;;;;;;4.22;2.63;;;23.30;41.30;;;;;;5137243;27;20456;-38
2023/05/03 12:34:12;;;;;;;3.17;2.17;;;23.30;40.70;;;;;;5150919;27;20494;-37
2023/05/03 12:36:37;;;;;;;2.92;2.25;;;23.30;41.40;;;;;;5144437;27;20449;-40
2023/05/03 12:39:03;;;;;;;3.25;2.00;;;23.30;41.70;;;;;;5149376;27;20026;-37
2023/05/03 12:41:30;;;;;;;2.33;1.98;;;23.20;41.30;;;;;;5144118;27;20072;-40
2023/05/03 12:44:01;;;;;;;2.45;2.20;;;23.30;41.20;;;;;;5153029;27;20118;-38
2023/05/03 12:46:27;;;;;;;3.78;2.50;;;23.20;40.10;;;;;;5156269;27;20030;-41
2023/05/03 12:48:53;;;;;;;3.38;2.40;;;23.40;40.50;;;;;;5167794;27;20035;-37
2023/05/03 12:51:19;;;;;;;3.40;2.17;;;23.90;41.00;;;;;;5154508;27;20473;-38
2023/05/03 12:53:46;;;;;;;2.90;2.10;;;24.30;40.70;;;;;;5146173;27;20039;-38
2023/05/03 12:56:12;;;;;;;2.42;1.98;;;24.20;40.30;;;;;;5149284;27;20038;-40